Time;durP1;ratioP1;P1;durP2;ratioP2;P2;SDS_P1;SDS_P2;PMS_P1;PMS_P2;Temp;Humidity;BMP_temperature;BMP_pressure;BME280_temperature;BME280_humidity;BME280_pressure;Samples;Min_cycle;Max_cycle;Signal;HPM_P1;HPM_P2
2022/05/31 00:00:50;;;;;;;5.80;3.83;;;;;;;14.54;91.57;94466.23;1665905;86;20996;-54
2022/05/31 00:03:17;;;;;;;5.08;3.40;;;;;;;14.52;91.90;94459.02;1665897;86;21031;-53
2022/05/31 00:05:44;;;;;;;4.58;3.52;;;;;;;14.48;92.19;94465.98;1682372;85;21142;-54
2022/05/31 00:08:11;;;;;;;5.67;3.45;;;;;;;14.43;92.96;94468.05;1679120;84;20975;-54
2022/05/31 00:10:38;;;;;;;5.08;3.30;;;;;;;14.44;92.99;94466.17;1678028;84;21440;-53
2022/05/31 00:13:05;;;;;;;8.63;3.50;;;;;;;14.42;92.93;94465.14;1677785;85;21001;-54
2022/05/31 00:15:32;;;;;;;6.50;3.62;;;;;;;14.41;92.95;94465.61;1675289;84;21021;-52
2022/05/31 00:17:58;;;;;;;4.37;3.58;;;;;;;14.43;93.74;94465.89;1652498;85;21248;-53
2022/05/31 00:20:26;;;;;;;4.50;3.58;;;;;;;14.47;93.56;94467.23;1677766;84;21064;-53
2022/05/31 00:22:53;;;;;;;3.40;3.10;;;;;;;14.51;92.91;94471.34;1677889;85;21476;-54
2022/05/31 00:25:19;;;;;;;6.08;3.37;;;;;;;14.49;91.94;94476.56;1678218;85;21009;-54
2022/05/31 00:27:47;;;;;;;5.70;3.15;;;;;;;14.43;91.42;94479.12;1677896;85;21008;-54
2022/05/31 00:30:14;;;;;;;5.80;3.50;;;;;;;14.39;91.33;94484.06;1678138;85;21208;-54
2022/05/31 00:32:44;;;;;;;3.40;3.10;;;;;;;14.37;91.30;94471.33;1652305;85;21000;-55
2022/05/31 00:35:22;;;;;;;4.20;3.05;;;;;;;14.33;91.00;94469.38;1678074;85;21064;-54
2022/05/31 00:37:49;;;;;;;4.47;3.15;;;;;;;14.34;91.06;94475.69;1674459;85;20977;-52
2022/05/31 00:40:18;;;;;;;6.50;3.40;;;;;;;14.32;90.86;94476.80;1677989;84;21587;-53
2022/05/31 00:43:00;;;;;;;5.22;3.25;;;;;;;14.27;91.22;94483.75;1677966;84;21134;-53
2022/05/31 00:45:51;;;;;;;5.28;3.60;;;;;;;14.27;91.87;94473.29;1678049;85;21143;-54
2022/05/31 00:48:25;;;;;;;6.08;3.52;;;;;;;14.25;92.11;94471.62;1676643;84;21496;-53
2022/05/31 00:50:56;;;;;;;6.05;3.72;;;;;;;14.27;91.97;94480.20;1675835;84;21020;-53
2022/05/31 00:53:31;;;;;;;8.33;3.80;;;;;;;14.25;91.87;94476.55;1677488;85;20965;-54
2022/05/31 00:56:04;;;;;;;8.05;3.77;;;;;;;14.27;91.98;94482.37;1678124;84;21016;-54
2022/05/31 00:58:46;;;;;;;3.87;3.40;;;;;;;14.21;91.27;94479.36;1653400;85;21409;-54
2022/05/31 01:01:16;;;;;;;4.62;3.67;;;;;;;14.14;91.13;94480.47;1675831;85;20949;-54
2022/05/31 01:03:44;;;;;;;3.27;2.98;;;;;;;14.10;91.46;94477.73;1653076;85;21036;-54
2022/05/31 01:06:12;;;;;;;4.65;3.33;;;;;;;14.13;91.76;94483.69;1652704;85;21550;-54
2022/05/31 01:08:44;;;;;;;5.28;3.30;;;;;;;14.18;91.73;94477.55;1675264;85;21313;-54
2022/05/31 01:11:16;;;;;;;3.60;3.30;;;;;;;14.15;91.49;94482.63;1674541;85;20998;-54
2022/05/31 01:13:45;;;;;;;5.17;3.30;;;;;;;14.11;91.41;94484.19;1662805;86;21031;-53
2022/05/31 01:16:30;;;;;;;5.35;3.35;;;;;;;14.07;91.49;94480.85;1666229;86;21435;-53
2022/05/31 01:19:55;;;;;;;4.25;3.60;;;;;;;14.04;92.31;94483.19;1665935;86;21192;-53
2022/05/31 01:21:48;;;;;;;4.45;3.77;;;;;;;14.05;92.37;94481.95;1676434;85;21806;-53
2022/05/31 01:24:17;;;;;;;6.75;3.58;;;;;;;14.06;92.91;94481.31;1678465;85;21493;-52
2022/05/31 01:27:01;;;;;;;4.08;3.30;;;;;;;14.11;92.76;94480.64;1682528;84;21077;-53
2022/05/31 01:29:33;;;;;;;8.70;3.72;;;;;;;14.12;92.34;94487.70;1675618;85;20971;-52
2022/05/31 01:32:11;;;;;;;7.12;4.10;;;;;;;14.09;92.35;94486.67;1679651;85;20971;-52
2022/05/31 01:34:54;;;;;;;5.92;4.10;;;;;;;14.09;92.33;94485.28;1679410;85;21156;-53
2022/05/31 01:37:34;;;;;;;8.05;4.10;;;;;;;14.04;92.47;94490.11;1679155;85;20955;-53
2022/05/31 01:40:06;;;;;;;4.40;3.62;;;;;;;14.04;92.56;94499.00;1679247;85;21014;-52
2022/05/31 01:42:37;;;;;;;6.08;4.35;;;;;;;14.05;92.83;94488.08;1679722;84;21030;-53
2022/05/31 01:45:26;;;;;;;5.12;4.12;;;;;;;14.08;92.82;94489.90;1679524;85;21049;-53
2022/05/31 01:48:00;;;;;;;5.40;4.12;;;;;;;14.10;92.73;94485.42;1679263;85;21428;-53
2022/05/31 01:50:27;;;;;;;4.85;4.33;;;;;;;14.11;92.67;94498.63;1679159;85;21018;-53
2022/05/31 01:52:53;;;;;;;3.80;3.45;;;;;;;14.12;92.99;94506.46;1679389;85;20967;-53
2022/05/31 01:55:21;;;;;;;4.17;3.75;;;;;;;14.12;92.69;94505.08;1679288;85;21494;-53
2022/05/31 01:57:53;;;;;;;5.47;3.62;;;;;;;14.08;92.67;94507.27;1679282;85;21031;-53
2022/05/31 02:00:21;;;;;;;;;;;;;;;14.05;92.56;94506.84;1681706;85;21779;-53
2022/05/31 02:02:51;;;;;;;6.62;3.77;;;;;;;13.98;92.95;94514.75;1679135;85;20439;-53
2022/05/31 02:05:19;;;;;;;6.80;4.10;;;;;;;13.91;92.96;94508.18;1679401;84;21050;-53
2022/05/31 02:07:59;;;;;;;4.72;3.80;;;;;;;13.87;93.05;94500.69;1659980;85;21046;-53
2022/05/31 02:10:27;;;;;;;7.40;3.85;;;;;;;13.84;93.23;94501.64;1651483;85;21545;-53
2022/05/31 02:12:55;;;;;;;7.55;4.70;;;;;;;13.82;93.39;94495.83;1678474;85;21783;-54
2022/05/31 02:15:42;;;;;;;4.95;4.45;;;;;;;13.80;93.67;94505.22;1640341;85;21503;-52
2022/05/31 02:19:15;;;;;;;5.87;4.25;;;;;;;13.76;93.92;94508.16;1678605;85;21494;-52
2022/05/31 02:20:58;;;;;;;4.45;4.05;;;;;;;13.73;94.04;94511.09;1626730;85;21053;-53
2022/05/31 02:23:25;;;;;;;4.97;4.05;;;;;;;13.74;94.20;94505.70;1658586;86;21554;-53
2022/05/31 02:25:51;;;;;;;5.25;4.67;;;;;;;13.72;94.31;94504.81;1636149;87;21195;-53
2022/05/31 02:28:18;;;;;;;6.37;4.12;;;;;;;13.75;94.84;94507.23;1636086;87;21020;-53
2022/05/31 02:30:46;;;;;;;6.92;4.20;;;;;;;13.80;95.11;94513.52;1636558;87;21497;-53
2022/05/31 02:33:12;;;;;;;10.63;4.85;;;;;;;13.83;94.94;94516.08;1636159;87;20984;-54
2022/05/31 02:35:39;;;;;;;4.70;4.30;;;;;;;13.86;94.52;94515.16;1649603;87;21027;-54
2022/05/31 02:38:06;;;;;;;5.90;4.42;;;;;;;13.89;93.92;94514.20;1636151;87;21250;-53
2022/05/31 02:40:33;;;;;;;5.45;4.60;;;;;;;13.89;93.93;94517.57;1649591;86;21016;-53
2022/05/31 02:42:59;;;;;;;4.70;4.30;;;;;;;13.92;93.77;94517.40;1649517;87;20996;-53
2022/05/31 02:45:27;;;;;;;8.00;4.33;;;;;;;13.88;93.40;94516.05;1649704;87;21548;-53
2022/05/31 02:47:55;;;;;;;5.72;4.33;;;;;;;13.88;93.83;94517.42;1649534;86;21058;-53
2022/05/31 02:50:22;;;;;;;4.83;4.33;;;;;;;13.92;93.56;94529.06;1649539;86;21373;-53
2022/05/31 02:52:49;;;;;;;5.87;4.30;;;;;;;13.94;93.12;94539.03;1649560;86;21097;-54
2022/05/31 02:55:16;;;;;;;4.78;4.37;;;;;;;13.92;93.19;94531.23;1649549;87;21023;-54
2022/05/31 02:57:51;;;;;;;4.67;3.90;;;;;;;13.96;93.45;94531.05;1646888;87;21003;-54
2022/05/31 03:00:35;;;;;;;6.78;5.37;;;;;;;14.01;93.20;94526.23;1570215;90;21072;-54
2022/05/31 03:03:21;;;;;;;7.10;4.33;;;;;;;14.03;92.98;94529.30;1634883;85;21365;-52
2022/05/31 03:06:05;;;;;;;5.17;4.67;;;;;;;14.08;93.15;94530.01;1678405;85;21003;-52
2022/05/31 03:08:41;;;;;;;10.43;5.55;;;;;;;14.14;92.90;94533.03;1677041;85;21003;-53
2022/05/31 03:11:30;;;;;;;5.37;4.85;;;;;;;14.12;92.31;94534.13;1667601;85;20983;-53
2022/05/31 03:14:03;;;;;;;7.05;4.45;;;;;;;14.10;92.12;94527.53;1647050;87;21045;-54
2022/05/31 03:16:30;;;;;;;5.17;4.62;;;;;;;14.10;92.07;94535.83;1622534;88;21172;-54
2022/05/31 03:19:04;;;;;;;9.40;5.10;;;;;;;14.06;91.67;94543.55;1665715;86;20996;-53
2022/05/31 03:21:38;;;;;;;10.28;7.33;;;;;;;13.99;91.60;94535.00;1647993;87;21025;-53
2022/05/31 03:24:08;;;;;;;;;;;;;;;13.98;92.28;94544.53;1625781;88;21041;-52
2022/05/31 03:26:35;;;;;;;16.57;9.58;;;;;;;14.02;92.44;94541.59;1665971;86;20441;-54
2022/05/31 03:29:01;;;;;;;13.13;9.20;;;;;;;14.05;91.79;94543.41;1623371;88;21248;-54
2022/05/31 03:31:30;;;;;;;14.78;10.18;;;;;;;14.07;91.64;94543.70;1623319;86;20972;-53
2022/05/31 03:33:58;;;;;;;15.63;9.78;;;;;;;14.09;91.64;94555.05;1621709;88;21090;-53
2022/05/31 03:36:24;;;;;;;15.30;9.35;;;;;;;14.11;91.48;94558.87;1644707;86;21591;-53
2022/05/31 03:38:53;;;;;;;12.30;8.75;;;;;;;14.10;91.14;94556.58;1621985;88;21517;-53
2022/05/31 03:41:20;;;;;;;10.45;7.78;;;;;;;14.04;91.29;94558.48;1626911;87;22085;-53
2022/05/31 03:43:49;;;;;;;9.90;7.40;;;;;;;14.05;91.57;94555.25;1665807;86;21472;-53
2022/05/31 03:46:21;;;;;;;12.23;7.40;;;;;;;14.10;91.52;94557.95;1648140;87;20987;-53
2022/05/31 03:48:52;;;;;;;10.00;7.37;;;;;;;14.17;91.82;94560.41;1623284;88;21049;-53
2022/05/31 03:51:18;;;;;;;10.58;7.50;;;;;;;14.27;91.89;94553.53;1666068;86;21011;-53
2022/05/31 03:53:47;;;;;;;10.88;7.25;;;;;;;14.39;91.69;94552.51;1648389;86;21170;-54
2022/05/31 03:56:16;;;;;;;8.70;7.53;;;;;;;14.43;90.67;94552.47;1623280;88;21099;-53
2022/05/31 03:58:43;;;;;;;9.60;7.55;;;;;;;14.45;90.96;94553.50;1665915;86;21003;-53
2022/05/31 04:01:14;;;;;;;13.35;9.45;;;;;;;14.58;90.81;94551.84;1622077;88;21064;-53
2022/05/31 04:03:42;;;;;;;11.80;9.23;;;;;;;14.68;90.35;94562.97;1665888;86;20983;-53
2022/05/31 04:06:11;;;;;;;11.70;8.70;;;;;;;14.72;89.04;94575.39;1649637;87;21291;-53
2022/05/31 04:08:38;;;;;;;12.50;9.00;;;;;;;14.73;88.59;94579.69;1649621;87;21028;-53
2022/05/31 04:11:04;;;;;;;9.03;7.17;;;;;;;14.74;88.28;94581.22;1657983;85;21577;-53
2022/05/31 04:13:31;;;;;;;9.23;7.33;;;;;;;14.83;87.89;94576.20;1661729;85;21024;-54
2022/05/31 04:16:17;;;;;;;13.05;7.30;;;;;;;14.92;87.95;94587.16;1661916;86;21031;-53
2022/05/31 04:18:47;;;;;;;13.68;7.47;;;;;;;15.04;87.59;94577.80;1661361;86;21440;-53
2022/05/31 04:21:18;;;;;;;10.63;7.20;;;;;;;15.16;87.34;94584.42;1640246;87;20988;-54
2022/05/31 04:23:58;;;;;;;10.63;7.55;;;;;;;15.26;86.64;94582.30;1627311;87;21042;-54
2022/05/31 04:26:45;;;;;;;11.20;8.33;;;;;;;15.36;86.14;94587.92;1649728;85;21083;-51
2022/05/31 04:29:30;;;;;;;15.10;7.73;;;;;;;15.40;85.17;94585.06;1649985;87;20987;-51
2022/05/31 04:32:16;;;;;;;10.63;7.62;;;;;;;15.38;84.96;94583.40;1649647;87;21170;-55
2022/05/31 04:35:05;;;;;;;9.35;6.72;;;;;;;15.38;84.54;94588.20;1648935;87;21125;-55
2022/05/31 04:37:33;;;;;;;12.65;6.30;;;;;;;15.36;84.44;94590.05;1649974;85;21040;-54
2022/05/31 04:40:12;;;;;;;9.58;6.42;;;;;;;15.31;84.10;94590.74;1629560;86;21000;-54
2022/05/31 04:42:57;;;;;;;9.18;6.35;;;;;;;15.28;84.34;94580.59;1649719;85;21157;-55
2022/05/31 04:45:37;;;;;;;10.50;6.42;;;;;;;15.33;84.50;94585.48;1647001;86;21283;-54
2022/05/31 04:48:22;;;;;;;8.28;6.83;;;;;;;15.33;84.36;94579.94;1649625;87;20975;-55
2022/05/31 04:50:49;;;;;;;8.63;6.75;;;;;;;15.32;84.55;94581.18;1649585;87;21515;-55
2022/05/31 04:53:17;;;;;;;7.28;5.83;;;;;;;15.37;84.48;94590.19;1626893;87;21035;-55
2022/05/31 04:56:04;;;;;;;8.93;6.65;;;;;;;15.41;84.19;94592.16;1649679;85;20988;-54
2022/05/31 04:58:33;;;;;;;12.53;7.83;;;;;;;15.44;84.25;94589.81;1649670;87;21225;-54
2022/05/31 05:01:06;;;;;;;10.68;7.10;;;;;;;15.43;83.93;94588.89;1639967;87;21016;-55
2022/05/31 05:03:36;;;;;;;10.23;6.67;;;;;;;15.39;84.02;94583.55;1650009;87;21420;-54
2022/05/31 05:06:05;;;;;;;7.35;5.92;;;;;;;15.39;84.64;94583.55;1649588;87;21035;-54
2022/05/31 05:08:32;;;;;;;10.48;6.12;;;;;;;15.47;84.73;94585.30;1626916;87;21051;-54
2022/05/31 05:11:01;;;;;;;11.75;6.65;;;;;;;15.55;84.91;94589.20;1655582;85;21881;-54
2022/05/31 05:13:31;;;;;;;11.43;5.95;;;;;;;15.54;83.99;94593.98;1621397;87;21462;-53
2022/05/31 05:16:20;;;;;;;7.78;5.62;;;;;;;15.48;84.05;94586.82;1670144;85;21072;-55
2022/05/31 05:18:49;;;;;;;7.25;5.00;;;;;;;15.40;83.96;94592.00;1655189;86;21014;-62
2022/05/31 05:21:16;;;;;;;7.87;5.45;;;;;;;15.32;84.17;94593.66;1655701;86;21091;-54
2022/05/31 05:23:44;;;;;;;5.97;5.37;;;;;;;15.31;84.62;94602.44;1655665;86;21271;-53
2022/05/31 05:26:13;;;;;;;21.17;11.35;;;;;;;15.34;84.48;94611.95;1655124;86;21546;-58
2022/05/31 05:31:36;;;;;;;6.67;5.33;;;;;;;15.36;85.24;94605.30;1638799;85;21045;-53
2022/05/31 05:34:21;;;;;;;8.20;5.62;;;;;;;15.39;85.33;94607.10;1672173;85;21106;-54
2022/05/31 05:36:52;;;;;;;7.65;5.75;;;;;;;15.42;85.15;94610.33;1654318;86;21361;-55
2022/05/31 05:39:19;;;;;;;10.68;5.75;;;;;;;15.44;85.00;94613.37;1655094;86;21102;-52
2022/05/31 05:42:01;;;;;;;7.42;5.60;;;;;;;15.48;84.95;94614.55;1655805;86;21034;-51
2022/05/31 05:44:41;;;;;;;5.90;5.17;;;;;;;15.51;85.03;94610.20;1652962;85;21030;-54
2022/05/31 05:47:14;;;;;;;7.30;5.08;;;;;;;15.58;85.27;94607.01;1645952;87;21259;-51
2022/05/31 05:49:39;;;;;;;7.47;5.62;;;;;;;15.68;85.43;94608.43;1640774;86;21151;-53
2022/05/31 05:52:13;;;;;;;7.00;5.53;;;;;;;15.79;85.36;94615.53;1617786;86;21171;-56
2022/05/31 05:55:01;;;;;;;12.60;6.50;;;;;;;15.92;84.72;94615.19;1638719;86;21062;-52
2022/05/31 05:57:47;;;;;;;9.05;5.55;;;;;;;16.03;84.50;94613.94;1604671;88;21055;-53
2022/05/31 06:00:33;;;;;;;14.15;8.73;;;;;;;16.21;84.11;94614.44;1652050;85;21437;-54
2022/05/31 06:03:23;;;;;;;18.02;11.33;;;;;;;16.38;83.25;94612.65;1621004;86;21360;-53
2022/05/31 06:05:58;;;;;;;8.38;6.12;;;;;;;16.52;82.56;94614.59;1624413;86;21463;-61
2022/05/31 06:08:44;;;;;;;14.50;6.80;;;;;;;16.68;81.51;94618.92;1625685;86;21072;-55
2022/05/31 06:11:16;;;;;;;10.53;6.12;;;;;;;16.77;80.99;94617.36;1646415;85;21174;-62
2022/05/31 06:13:57;;;;;;;10.58;5.53;;;;;;;16.82;79.46;94616.67;1661802;84;21125;-57
2022/05/31 06:16:27;;;;;;;9.40;5.30;;;;;;;16.85;79.31;94617.69;1681625;84;21152;-55
2022/05/31 06:19:06;;;;;;;8.50;4.90;;;;;;;16.90;79.21;94621.17;1671802;84;21036;-56
2022/05/31 06:21:34;;;;;;;6.35;4.95;;;;;;;16.93;78.64;94627.13;1675695;84;21072;-58
2022/05/31 06:24:15;;;;;;;12.13;4.50;;;;;;;16.94;77.95;94622.45;1613138;85;21731;-57
2022/05/31 06:26:42;;;;;;;5.30;4.15;;;;;;;16.95;77.78;94621.84;1649483;84;21515;-57
2022/05/31 06:29:09;;;;;;;5.50;4.22;;;;;;;16.95;77.21;94621.20;1661111;84;21061;-58
2022/05/31 06:31:38;;;;;;;5.28;4.17;;;;;;;16.99;76.59;94621.77;1676999;84;21689;-57
2022/05/31 06:34:07;;;;;;;6.85;6.15;;;;;;;17.08;76.19;94611.11;1671058;84;21071;-56
2022/05/31 06:36:35;;;;;;;7.08;3.95;;;;;;;17.20;75.75;94615.49;1654207;86;21121;-55
2022/05/31 06:39:02;;;;;;;5.17;4.30;;;;;;;17.24;75.16;94620.23;1667090;84;21066;-56
2022/05/31 06:41:29;;;;;;;12.82;5.40;;;;;;;17.24;75.42;94624.39;1656850;84;21328;-56
2022/05/31 06:44:14;;;;;;;4.50;4.10;;;;;;;17.25;75.67;94625.92;1650251;86;21109;-55
2022/05/31 06:46:52;;;;;;;5.05;3.98;;;;;;;17.27;75.48;94628.97;1574038;89;21124;-57
2022/05/31 06:49:38;;;;;;;9.55;4.90;;;;;;;17.25;75.15;94627.31;1617565;86;21086;-57
2022/05/31 06:58:07;;;;;;;10.93;5.00;;;;;;;17.04;75.56;94636.34;1649189;85;21067;-56
2022/05/31 07:00:35;;;;;;;6.72;5.03;;;;;;;17.00;76.16;94632.24;1678807;84;21067;-54
2022/05/31 07:03:04;;;;;;;8.23;4.95;;;;;;;17.02;76.39;94632.52;1674775;84;20964;-56
2022/05/31 07:05:33;;;;;;;6.78;4.92;;;;;;;17.03;76.69;94634.81;1652622;84;38358;-57
2022/05/31 07:08:00;;;;;;;7.35;4.90;;;;;;;17.09;76.48;94640.44;1675112;84;21188;-54
2022/05/31 07:10:46;;;;;;;6.67;4.37;;;;;;;17.15;76.24;94637.06;1634021;86;21107;-54
2022/05/31 07:13:20;;;;;;;5.83;5.03;;;;;;;17.20;76.29;94632.17;1662914;86;21025;-57
2022/05/31 07:16:05;;;;;;;9.53;6.12;;;;;;;17.24;76.48;94632.73;1660057;86;21067;-56
2022/05/31 07:18:37;;;;;;;13.05;9.05;;;;;;;17.28;76.65;94637.44;1634478;86;21113;-55
2022/05/31 07:21:04;;;;;;;12.13;9.00;;;;;;;17.37;76.38;94641.45;1653718;86;21319;-56
2022/05/31 07:23:31;;;;;;;18.55;9.43;;;;;;;17.48;75.82;94641.55;1661539;86;21193;-56
2022/05/31 07:26:02;;;;;;;12.30;8.15;;;;;;;17.60;75.41;94648.09;1657912;85;21479;-54
2022/05/31 07:28:30;;;;;;;12.70;9.68;;;;;;;17.71;74.82;94648.19;1660203;85;21412;-55
2022/05/31 07:31:00;;;;;;;11.57;7.47;;;;;;;17.77;74.11;94650.37;1657889;86;21163;-56
2022/05/31 07:33:29;;;;;;;13.40;7.72;;;;;;;17.78;73.90;94656.07;1668022;85;21316;-60
2022/05/31 07:35:56;;;;;;;10.58;7.20;;;;;;;17.81;74.07;94654.33;1662237;85;21140;-57
2022/05/31 07:38:26;;;;;;;9.13;5.85;;;;;;;17.85;74.15;94652.81;1667516;85;21008;-55
2022/05/31 07:40:56;;;;;;;8.93;5.35;;;;;;;17.94;74.26;94650.47;1661857;85;21001;-56
2022/05/31 07:43:24;;;;;;;6.62;4.78;;;;;;;18.02;74.18;94652.30;1668987;85;21053;-57
2022/05/31 07:46:07;;;;;;;7.95;6.17;;;;;;;18.15;74.27;94655.42;1644910;86;21179;-53
2022/05/31 07:48:34;;;;;;;6.35;5.45;;;;;;;18.19;74.29;94666.46;1661271;86;21190;-57
2022/05/31 07:51:04;;;;;;;6.58;5.90;;;;;;;18.24;74.31;94664.33;1655892;86;21013;-55
2022/05/31 07:53:38;;;;;;;7.30;5.35;;;;;;;18.31;73.90;94666.66;1654562;86;21077;-55
2022/05/31 07:56:10;;;;;;;10.50;5.67;;;;;;;18.38;74.06;94662.03;1655128;86;21093;-55
2022/05/31 07:58:56;;;;;;;5.83;4.80;;;;;;;18.34;73.58;94654.55;1678711;83;21323;-58
2022/05/31 08:01:41;;;;;;;5.17;4.67;;;;;;;18.40;74.89;94661.52;1669771;85;20965;-55
2022/05/31 08:04:10;;;;;;;7.83;5.90;;;;;;;18.55;74.55;94664.27;1656248;85;20987;-60
2022/05/31 08:06:37;;;;;;;5.17;4.67;;;;;;;18.62;74.19;94669.34;1659658;84;21574;-57
2022/05/31 08:09:04;;;;;;;6.50;5.53;;;;;;;18.60;73.85;94661.34;1638589;86;21566;-56
2022/05/31 08:11:33;;;;;;;5.87;5.22;;;;;;;18.52;74.47;94665.89;1661108;85;21157;-54
2022/05/31 08:14:03;;;;;;;7.45;4.85;;;;;;;18.51;74.74;94669.94;1657684;86;21137;-57
2022/05/31 08:16:32;;;;;;;8.48;5.08;;;;;;;18.57;74.37;94670.09;1656668;86;21050;-55
2022/05/31 08:18:58;;;;;;;4.90;4.40;;;;;;;18.70;73.99;94668.23;1674581;85;21058;-55
2022/05/31 08:21:28;;;;;;;5.30;4.75;;;;;;;18.75;72.69;94668.27;1674836;85;21223;-59
2022/05/31 08:24:00;;;;;;;5.20;4.70;;;;;;;18.78;72.85;94671.44;1673281;85;21100;-57
2022/05/31 08:26:27;;;;;;;7.47;4.75;;;;;;;18.84;72.49;94666.63;1669741;84;21072;-53
2022/05/31 08:28:55;;;;;;;10.45;4.83;;;;;;;18.89;72.55;94668.70;1660667;86;21090;-57
2022/05/31 08:31:27;;;;;;;8.18;4.50;;;;;;;19.00;72.21;94670.11;1638111;86;21049;-55
2022/05/31 08:33:54;;;;;;;5.33;4.33;;;;;;;19.10;71.65;94671.41;1640270;86;20982;-58
2022/05/31 08:36:23;;;;;;;8.93;4.42;;;;;;;19.17;71.33;94679.30;1663847;85;21053;-57
2022/05/31 08:38:51;;;;;;;8.65;4.42;;;;;;;19.24;71.01;94684.41;1661481;85;21117;-56
2022/05/31 08:41:31;;;;;;;5.85;4.53;;;;;;;19.26;69.95;94684.66;1639215;84;21030;-59
2022/05/31 08:44:06;;;;;;;4.80;4.40;;;;;;;19.20;69.47;94681.08;1659496;86;21041;-54
2022/05/31 08:46:58;;;;;;;3.83;3.52;;;;;;;19.12;69.65;94682.82;1659394;86;21179;-55
2022/05/31 08:53:04;;;;;;;4.10;3.70;;;;;;;18.88;70.38;94678.95;1572303;90;21012;-55
2022/05/31 08:58:35;;;;;;;6.15;3.65;;;;;;;18.76;70.13;94687.13;1643802;86;21062;-55
2022/05/31 09:01:02;;;;;;;4.62;3.67;;;;;;;18.58;70.48;94682.77;1668649;85;21032;-58
2022/05/31 09:03:42;;;;;;;7.87;3.37;;;;;;;18.48;71.45;94677.27;1655172;85;22654;-57
2022/05/31 09:06:16;;;;;;;3.75;3.20;;;;;;;18.52;71.38;94681.98;1671163;84;21450;-59
2022/05/31 09:08:53;;;;;;;;;;;;;;;18.54;71.29;94682.25;1647395;85;21113;-56
2022/05/31 09:11:26;;;;;;;5.30;3.75;;;;;;;18.58;71.46;94678.58;1647225;86;20325;-59
2022/05/31 09:14:28;;;;;;;6.70;4.33;;;;;;;18.70;71.59;94684.96;1655464;85;21079;-57
2022/05/31 09:17:13;;;;;;;3.98;3.62;;;;;;;19.03;72.00;94676.06;1651354;86;21131;-57
2022/05/31 09:19:57;;;;;;;4.03;3.15;;;;;;;19.48;71.88;94684.69;1654249;86;21145;-57
2022/05/31 09:22:24;;;;;;;4.15;3.33;;;;;;;19.83;69.64;94681.39;1647062;86;21077;-56
2022/05/31 09:24:52;;;;;;;4.17;3.62;;;;;;;19.99;68.58;94682.79;1627565;86;21025;-57
2022/05/31 09:27:24;;;;;;;6.28;3.10;;;;;;;20.10;67.02;94678.59;1626062;87;21078;-58
2022/05/31 09:30:21;;;;;;;5.13;3.33;;;;;;;20.15;66.19;94687.59;1675671;84;21212;-61
2022/05/31 09:33:12;;;;;;;4.15;3.50;;;;;;;20.17;65.47;94682.29;1679730;84;21273;-58
2022/05/31 09:35:54;;;;;;;4.45;3.80;;;;;;;20.19;66.41;94679.74;1683897;83;21102;-57
2022/05/31 09:38:36;;;;;;;3.47;3.17;;;;;;;20.33;67.47;94680.07;1625587;87;21080;-55
2022/05/31 09:41:32;;;;;;;4.65;3.80;;;;;;;20.38;64.66;94680.72;1666456;85;21078;-56
2022/05/31 09:44:22;;;;;;;4.60;3.75;;;;;;;20.22;64.43;94673.13;1606179;85;21286;-57
2022/05/31 09:47:05;;;;;;;4.10;3.42;;;;;;;20.14;65.47;94673.51;1675617;84;21139;-55
2022/05/31 09:49:50;;;;;;;4.85;3.45;;;;;;;20.27;64.42;94671.73;1674392;85;21450;-54
2022/05/31 09:52:47;;;;;;;6.05;3.90;;;;;;;20.46;65.84;94678.91;1633163;86;21572;-54
2022/05/31 09:58:37;;;;;;;6.45;3.25;;;;;;;21.01;64.33;94674.52;1683407;84;21340;-53
2022/05/31 10:01:29;;;;;;;6.62;3.45;;;;;;;21.26;64.31;94667.13;1658593;86;21045;-58
2022/05/31 10:04:28;;;;;;;6.12;3.20;;;;;;;21.54;62.17;94666.95;1657600;86;21085;-54
2022/05/31 10:07:03;;;;;;;4.80;2.90;;;;;;;21.69;61.78;94661.12;1624966;87;21102;-57
2022/05/31 10:09:35;;;;;;;6.55;3.12;;;;;;;21.88;61.82;94664.04;1658996;86;20970;-58
2022/05/31 10:12:26;;;;;;;4.53;3.20;;;;;;;22.04;62.06;94662.48;1658484;86;21326;-54
2022/05/31 10:14:54;;;;;;;14.60;4.03;;;;;;;22.21;61.88;94658.25;1631017;87;20970;-57
2022/05/31 10:17:35;;;;;;;4.25;2.75;;;;;;;22.37;61.36;94660.75;1632749;87;21513;-55
2022/05/31 10:20:22;;;;;;;4.72;2.62;;;;;;;22.49;59.15;94666.41;1641920;86;21100;-54
2022/05/31 10:23:00;;;;;;;5.22;2.67;;;;;;;22.43;57.93;94659.45;1658385;86;21018;-56
2022/05/31 10:25:54;;;;;;;5.60;3.42;;;;;;;22.18;57.39;94656.50;1658390;85;22371;-57
2022/05/31 10:28:34;;;;;;;3.15;2.85;;;;;;;22.14;58.87;94655.27;1645616;86;21629;-54
2022/05/31 10:31:19;;;;;;;3.17;2.62;;;;;;;22.46;59.80;94654.19;1635085;86;21109;-54
2022/05/31 10:33:57;;;;;;;5.03;2.75;;;;;;;22.97;57.63;94646.05;1648583;85;21075;-59
2022/05/31 10:36:28;;;;;;;2.92;2.50;;;;;;;23.46;57.31;94652.29;1672994;84;21028;-58
2022/05/31 10:38:56;;;;;;;5.33;2.90;;;;;;;23.63;54.51;94649.36;1648901;85;21261;-58
2022/05/31 10:41:29;;;;;;;4.72;2.87;;;;;;;23.80;55.47;94649.86;1627629;84;21089;-55
2022/05/31 10:44:16;;;;;;;4.55;2.90;;;;;;;23.99;54.10;94647.78;1655684;84;21227;-57
2022/05/31 10:46:46;;;;;;;4.05;2.65;;;;;;;24.29;54.25;94639.81;1672759;84;21120;-54
2022/05/31 10:49:19;;;;;;;2.83;2.52;;;;;;;24.68;51.61;94648.30;1665018;84;21137;-59
2022/05/31 10:52:46;;;;;;;5.05;2.25;;;;;;;24.90;52.65;94650.70;1659267;84;21366;-57
2022/05/31 10:55:47;;;;;;;4.78;2.72;;;;;;;24.98;50.39;94651.55;1652170;85;21780;-58
2022/05/31 10:58:46;;;;;;;3.00;2.70;;;;;;;25.01;49.91;94658.90;1678844;84;21051;-59
2022/05/31 11:01:25;;;;;;;5.22;3.22;;;;;;;24.94;51.62;94653.94;1673331;84;21100;-57
2022/05/31 11:04:10;;;;;;;3.15;2.22;;;;;;;24.72;51.69;94645.94;1650952;86;21038;-58
2022/05/31 11:07:15;;;;;;;3.02;2.75;;;;;;;24.41;52.80;94645.36;1663176;84;21339;-57
2022/05/31 11:13:00;;;;;;;5.22;2.98;;;;;;;23.47;52.91;94653.80;1648840;85;21160;-56
2022/05/31 11:15:53;;;;;;;3.10;2.30;;;;;;;23.19;54.27;94645.78;1677798;84;21071;-57
2022/05/31 11:18:46;;;;;;;4.80;2.85;;;;;;;22.98;55.06;94646.82;1704323;84;21060;-55
2022/05/31 11:21:59;;;;;;;8.08;2.67;;;;;;;22.79;55.26;94648.82;1704101;83;21260;-61
2022/05/31 11:24:53;;;;;;;4.37;2.90;;;;;;;22.67;55.18;94656.61;1703339;84;21169;-59
2022/05/31 11:27:44;;;;;;;6.72;3.15;;;;;;;22.79;55.75;94659.42;1713432;83;21694;-56
2022/05/31 11:30:21;;;;;;;7.17;3.00;;;;;;;23.23;56.13;94653.25;1700102;84;21659;-57
2022/05/31 11:33:24;;;;;;;4.55;3.30;;;;;;;23.61;54.81;94649.77;1703921;83;21497;-58
2022/05/31 11:36:25;;;;;;;3.72;2.98;;;;;;;23.96;53.74;94654.45;1704124;83;21326;-57
2022/05/31 11:39:06;;;;;;;2.80;2.58;;;;;;;23.94;52.88;94648.61;1685909;83;21108;-58
2022/05/31 11:41:53;;;;;;;3.20;2.77;;;;;;;23.94;52.94;94646.46;1703891;83;21109;-61
2022/05/31 11:44:52;;;;;;;6.92;2.98;;;;;;;23.79;52.14;94641.95;1704312;84;21131;-58
2022/05/31 11:47:50;;;;;;;4.03;2.85;;;;;;;23.50;53.07;94647.89;1683327;84;21013;-59
2022/05/31 11:50:56;;;;;;;3.22;2.77;;;;;;;23.10;53.78;94637.72;1702416;83;22033;-60
2022/05/31 11:54:00;;;;;;;4.17;2.90;;;;;;;22.79;54.71;94645.39;1649877;84;109399;-61
2022/05/31 11:56:38;;;;;;;3.70;3.08;;;;;;;22.76;55.51;94643.64;1688064;83;20985;-55
2022/05/31 11:59:09;;;;;;;3.47;2.80;;;;;;;22.63;54.48;94637.93;1684911;84;21056;-57
2022/05/31 12:01:57;;;;;;;5.90;3.27;;;;;;;22.40;55.29;94638.08;1668511;85;21086;-58
2022/05/31 12:04:35;;;;;;;6.25;3.52;;;;;;;22.34;56.01;94642.96;1675019;83;21114;-56
2022/05/31 12:07:28;;;;;;;6.42;3.45;;;;;;;22.63;55.62;94635.13;1687604;83;21017;-58
2022/05/31 12:09:59;;;;;;;;;;;;;;;23.13;54.76;94645.11;1693103;84;21136;-60
2022/05/31 12:12:31;;;;;;;4.85;3.05;;;;;;;23.47;53.60;94642.57;1676317;84;20188;-57
2022/05/31 12:15:14;;;;;;;2.98;2.67;;;;;;;23.48;52.98;94637.06;1679333;85;21100;-59
2022/05/31 12:17:57;;;;;;;3.10;2.80;;;;;;;23.98;51.57;94637.17;1684311;84;21069;-59
2022/05/31 12:20:44;;;;;;;5.08;2.77;;;;;;;24.40;51.92;94634.00;1670896;84;21080;-56
2022/05/31 12:23:33;;;;;;;4.58;3.55;;;;;;;24.93;50.40;94642.57;1677848;85;21108;-64
2022/05/31 12:26:04;;;;;;;5.42;3.70;;;;;;;25.34;49.77;94644.14;1685520;83;21061;-61
2022/05/31 12:28:54;;;;;;;3.05;2.55;;;;;;;25.27;48.15;94641.34;1677953;85;21233;-60
2022/05/31 12:31:27;;;;;;;3.92;2.67;;;;;;;25.01;48.81;94637.14;1665016;85;21240;-57
2022/05/31 12:34:10;;;;;;;3.92;2.90;;;;;;;24.63;49.39;94635.87;1674707;85;21164;-58